Pagrindinis puslapis
METAR-TAF:

METAR-TAF

Oro uostai :

Resistensija, Argentina

platuma: 27-27S, ilguma: 059-03W, Aukštis: 53 m

Dabartinis oras

Ataskaita buvo paskelbta 53 minutes, ne 16:00 UTC
Vėjas 11 kt iš Šiaurės/Šiaurės Rytų
Temperatūra 33°C
Drėgmė 46%
Slėgis 1003 hPa
Matomumas: 7000 m

METAR: SARE 151600Z 03011KT 7000 NSC 33/20 Q1003

Laikas: 13:53 (16:53 UTC)

Prognozė

Ataskaita buvo paskelbta 5 valandos ir 53 minutes, ne 11:00 UTC
Prognozė galioja nuo 15 metu 12 UTC su 16 metu 12 UTC
Vėjas 10 kt iš Rytų
Matomumas 10 km arba daugiau
nėra debesų žemiau 1500 m ir nėra kamuolinių lietaus debesų
Tapsmas
nuo 15 metu 13 UTC su 15 metu 14 UTC
Vėjas 15 kt iš Šiaurės Rytų
Matomumas 10 km arba daugiau
Mažai debesys ne aukštis 3500 ft
Tapsmas
nuo 16 metu 07 UTC su 16 metu 09 UTC
Vėjas 15 kt iš Pietų/Pietvakarių su gūsio iki 30 kt
Matomumas 10 km arba daugiau
Apsiniaukę ne aukštis 2500 ft

TAF: SARE 151100Z 1512/1612 09010KT CAVOK TX31/1518Z TN16/1612Z BECMG 1513/1514 05015KT 9999 FEW035 BECMG 1607/1609 20015G30KT 9999 OVC025

Orai ataskaitas ir orų prognozės (METAR, TAF).

turimą stotys yra geltonos ir raudonos taškus žemėlapyje.

Perkelti pele per norėdami pamatyti stoties vardą.

Tada spustelėkite, norėdami matyti oro stebėjimo ir prognozės.

Norėdami pakeisti žemėlapį: spustelėkite ant žalios mygtukų su juodo kryžiaus žemyn,; žalią mygtuką su brūkšneliu, jei norite nutolinti; arba žalių rodyklių gretimoms žemėlapius.


METAR-TAF: